sensor_id;sensor_type;location;lat;lon;timestamp;P1;durP1;ratioP1;P2;durP2;ratioP2
7761;SDS011;3925;48.636;9.516;2023-04-24T00:01:58;1.10;;;1.00;;
7761;SDS011;3925;48.636;9.516;2023-04-24T00:04:27;1.90;;;0.63;;
7761;SDS011;3925;48.636;9.516;2023-04-24T00:06:54;0.90;;;0.63;;
7761;SDS011;3925;48.636;9.516;2023-04-24T00:09:22;0.83;;;0.57;;
7761;SDS011;3925;48.636;9.516;2023-04-24T00:11:49;0.50;;;0.50;;
7761;SDS011;3925;48.636;9.516;2023-04-24T00:14:16;0.60;;;0.60;;
7761;SDS011;3925;48.636;9.516;2023-04-24T00:16:43;0.50;;;0.50;;
7761;SDS011;3925;48.636;9.516;2023-04-24T00:19:09;1.23;;;0.53;;
7761;SDS011;3925;48.636;9.516;2023-04-24T00:21:39;1.37;;;0.70;;
7761;SDS011;3925;48.636;9.516;2023-04-24T00:24:06;1.23;;;0.60;;
7761;SDS011;3925;48.636;9.516;2023-04-24T00:26:34;1.73;;;0.57;;
7761;SDS011;3925;48.636;9.516;2023-04-24T00:29:01;0.50;;;0.50;;
7761;SDS011;3925;48.636;9.516;2023-04-24T00:31:28;0.77;;;0.77;;
7761;SDS011;3925;48.636;9.516;2023-04-24T00:33:55;0.83;;;0.47;;
7761;SDS011;3925;48.636;9.516;2023-04-24T00:36:22;1.67;;;0.53;;
7761;SDS011;3925;48.636;9.516;2023-04-24T00:38:50;0.67;;;0.67;;
7761;SDS011;3925;48.636;9.516;2023-04-24T00:41:16;1.90;;;0.57;;
7761;SDS011;3925;48.636;9.516;2023-04-24T00:43:44;0.50;;;0.50;;
7761;SDS011;3925;48.636;9.516;2023-04-24T00:46:10;1.30;;;0.47;;
7761;SDS011;3925;48.636;9.516;2023-04-24T00:48:38;1.70;;;0.80;;
7761;SDS011;3925;48.636;9.516;2023-04-24T00:51:05;3.27;;;0.70;;
7761;SDS011;3925;48.636;9.516;2023-04-24T00:53:32;2.10;;;0.93;;
7761;SDS011;3925;48.636;9.516;2023-04-24T00:56:01;0.80;;;0.50;;
7761;SDS011;3925;48.636;9.516;2023-04-24T00:58:28;1.53;;;0.80;;
7761;SDS011;3925;48.636;9.516;2023-04-24T01:00:55;1.50;;;0.60;;
7761;SDS011;3925;48.636;9.516;2023-04-24T01:03:26;0.67;;;0.60;;
7761;SDS011;3925;48.636;9.516;2023-04-24T01:05:55;0.63;;;0.50;;
7761;SDS011;3925;48.636;9.516;2023-04-24T01:08:22;0.60;;;0.60;;
7761;SDS011;3925;48.636;9.516;2023-04-24T01:10:50;0.63;;;0.40;;
7761;SDS011;3925;48.636;9.516;2023-04-24T01:13:20;0.60;;;0.60;;
7761;SDS011;3925;48.636;9.516;2023-04-24T01:15:47;0.63;;;0.40;;
7761;SDS011;3925;48.636;9.516;2023-04-24T01:18:14;1.10;;;0.53;;
7761;SDS011;3925;48.636;9.516;2023-04-24T01:20:42;0.50;;;0.50;;
7761;SDS011;3925;48.636;9.516;2023-04-24T01:23:13;2.77;;;1.07;;
7761;SDS011;3925;48.636;9.516;2023-04-24T01:25:40;1.17;;;0.67;;
7761;SDS011;3925;48.636;9.516;2023-04-24T01:28:07;0.93;;;0.83;;
7761;SDS011;3925;48.636;9.516;2023-04-24T01:30:34;0.70;;;0.67;;
7761;SDS011;3925;48.636;9.516;2023-04-24T01:33:02;0.60;;;0.47;;
7761;SDS011;3925;48.636;9.516;2023-04-24T01:35:29;2.00;;;0.50;;
7761;SDS011;3925;48.636;9.516;2023-04-24T01:37:55;4.63;;;0.50;;
7761;SDS011;3925;48.636;9.516;2023-04-24T01:40:24;0.70;;;0.50;;
7761;SDS011;3925;48.636;9.516;2023-04-24T01:42:51;0.87;;;0.47;;
7761;SDS011;3925;48.636;9.516;2023-04-24T01:45:18;2.60;;;2.03;;
7761;SDS011;3925;48.636;9.516;2023-04-24T01:47:45;1.33;;;0.40;;
7761;SDS011;3925;48.636;9.516;2023-04-24T01:50:13;3.10;;;0.67;;
7761;SDS011;3925;48.636;9.516;2023-04-24T01:52:41;1.93;;;1.13;;
7761;SDS011;3925;48.636;9.516;2023-04-24T01:55:08;0.60;;;0.60;;
7761;SDS011;3925;48.636;9.516;2023-04-24T01:57:37;1.23;;;0.83;;
7761;SDS011;3925;48.636;9.516;2023-04-24T02:00:04;0.63;;;0.53;;
7761;SDS011;3925;48.636;9.516;2023-04-24T02:02:32;1.70;;;0.60;;
7761;SDS011;3925;48.636;9.516;2023-04-24T02:04:59;0.70;;;0.53;;
7761;SDS011;3925;48.636;9.516;2023-04-24T02:07:26;1.80;;;0.67;;
7761;SDS011;3925;48.636;9.516;2023-04-24T02:09:53;0.70;;;0.60;;
7761;SDS011;3925;48.636;9.516;2023-04-24T02:12:20;0.40;;;0.40;;
7761;SDS011;3925;48.636;9.516;2023-04-24T02:14:48;0.50;;;0.50;;
7761;SDS011;3925;48.636;9.516;2023-04-24T02:17:15;0.47;;;0.40;;
7761;SDS011;3925;48.636;9.516;2023-04-24T02:19:42;0.50;;;0.50;;
7761;SDS011;3925;48.636;9.516;2023-04-24T02:22:09;0.70;;;0.70;;
7761;SDS011;3925;48.636;9.516;2023-04-24T02:24:36;0.90;;;0.50;;
7761;SDS011;3925;48.636;9.516;2023-04-24T02:27:03;1.27;;;0.50;;
7761;SDS011;3925;48.636;9.516;2023-04-24T02:29:30;1.10;;;0.60;;
7761;SDS011;3925;48.636;9.516;2023-04-24T02:31:59;0.63;;;0.60;;
7761;SDS011;3925;48.636;9.516;2023-04-24T02:34:26;1.40;;;0.60;;
7761;SDS011;3925;48.636;9.516;2023-04-24T02:36:52;1.20;;;0.50;;
7761;SDS011;3925;48.636;9.516;2023-04-24T02:39:20;0.43;;;0.43;;
7761;SDS011;3925;48.636;9.516;2023-04-24T02:41:46;1.27;;;1.10;;
7761;SDS011;3925;48.636;9.516;2023-04-24T02:44:13;0.73;;;0.50;;
7761;SDS011;3925;48.636;9.516;2023-04-24T02:46:40;0.77;;;0.67;;
7761;SDS011;3925;48.636;9.516;2023-04-24T02:49:08;1.17;;;0.73;;
7761;SDS011;3925;48.636;9.516;2023-04-24T02:51:37;2.33;;;0.67;;
7761;SDS011;3925;48.636;9.516;2023-04-24T02:54:06;0.50;;;0.50;;
7761;SDS011;3925;48.636;9.516;2023-04-24T02:56:33;1.40;;;0.80;;
7761;SDS011;3925;48.636;9.516;2023-04-24T02:59:00;0.53;;;0.50;;
7761;SDS011;3925;48.636;9.516;2023-04-24T03:01:26;1.03;;;0.90;;
7761;SDS011;3925;48.636;9.516;2023-04-24T03:03:53;0.60;;;0.60;;
7761;SDS011;3925;48.636;9.516;2023-04-24T03:06:21;1.07;;;0.50;;
7761;SDS011;3925;48.636;9.516;2023-04-24T03:08:48;0.67;;;0.67;;
7761;SDS011;3925;48.636;9.516;2023-04-24T03:11:15;1.70;;;1.03;;
7761;SDS011;3925;48.636;9.516;2023-04-24T03:13:42;0.60;;;0.60;;
7761;SDS011;3925;48.636;9.516;2023-04-24T03:16:09;0.80;;;0.80;;
7761;SDS011;3925;48.636;9.516;2023-04-24T03:18:35;1.17;;;0.70;;
7761;SDS011;3925;48.636;9.516;2023-04-24T03:21:02;1.70;;;1.10;;
7761;SDS011;3925;48.636;9.516;2023-04-24T03:23:31;1.63;;;0.70;;
7761;SDS011;3925;48.636;9.516;2023-04-24T03:25:58;3.07;;;0.67;;
7761;SDS011;3925;48.636;9.516;2023-04-24T03:28:24;1.13;;;0.70;;
7761;SDS011;3925;48.636;9.516;2023-04-24T03:30:52;1.63;;;0.73;;
7761;SDS011;3925;48.636;9.516;2023-04-24T03:33:18;0.50;;;0.50;;
7761;SDS011;3925;48.636;9.516;2023-04-24T03:35:45;0.90;;;0.70;;
7761;SDS011;3925;48.636;9.516;2023-04-24T03:38:12;2.10;;;0.80;;
7761;SDS011;3925;48.636;9.516;2023-04-24T03:40:40;1.07;;;0.90;;
7761;SDS011;3925;48.636;9.516;2023-04-24T03:43:07;2.47;;;1.03;;
7761;SDS011;3925;48.636;9.516;2023-04-24T03:45:34;1.03;;;0.60;;
7761;SDS011;3925;48.636;9.516;2023-04-24T03:48:00;0.70;;;0.60;;
7761;SDS011;3925;48.636;9.516;2023-04-24T03:50:27;0.97;;;0.80;;
7761;SDS011;3925;48.636;9.516;2023-04-24T03:52:55;3.07;;;0.97;;
7761;SDS011;3925;48.636;9.516;2023-04-24T03:55:21;0.60;;;0.60;;
7761;SDS011;3925;48.636;9.516;2023-04-24T03:57:50;0.93;;;0.90;;
7761;SDS011;3925;48.636;9.516;2023-04-24T04:00:16;1.50;;;0.63;;
7761;SDS011;3925;48.636;9.516;2023-04-24T04:02:43;2.57;;;0.90;;
7761;SDS011;3925;48.636;9.516;2023-04-24T04:05:10;0.80;;;0.70;;
7761;SDS011;3925;48.636;9.516;2023-04-24T04:07:37;0.90;;;0.90;;
7761;SDS011;3925;48.636;9.516;2023-04-24T04:10:04;1.13;;;1.10;;
7761;SDS011;3925;48.636;9.516;2023-04-24T04:12:32;0.90;;;0.63;;
7761;SDS011;3925;48.636;9.516;2023-04-24T04:15:00;1.00;;;0.60;;
7761;SDS011;3925;48.636;9.516;2023-04-24T04:17:27;0.83;;;0.70;;
7761;SDS011;3925;48.636;9.516;2023-04-24T04:19:54;2.50;;;0.97;;
7761;SDS011;3925;48.636;9.516;2023-04-24T04:22:22;2.40;;;1.00;;
7761;SDS011;3925;48.636;9.516;2023-04-24T04:24:49;4.80;;;0.87;;
7761;SDS011;3925;48.636;9.516;2023-04-24T04:27:16;1.47;;;0.90;;
7761;SDS011;3925;48.636;9.516;2023-04-24T04:29:43;1.13;;;0.60;;
7761;SDS011;3925;48.636;9.516;2023-04-24T04:32:12;1.70;;;0.80;;
7761;SDS011;3925;48.636;9.516;2023-04-24T04:34:38;4.97;;;0.80;;
7761;SDS011;3925;48.636;9.516;2023-04-24T04:37:05;0.80;;;0.80;;
7761;SDS011;3925;48.636;9.516;2023-04-24T04:39:32;2.10;;;0.80;;
7761;SDS011;3925;48.636;9.516;2023-04-24T04:41:59;2.30;;;1.03;;
7761;SDS011;3925;48.636;9.516;2023-04-24T04:44:26;4.73;;;1.00;;
7761;SDS011;3925;48.636;9.516;2023-04-24T04:46:53;0.97;;;0.87;;
7761;SDS011;3925;48.636;9.516;2023-04-24T04:49:22;1.47;;;0.77;;
7761;SDS011;3925;48.636;9.516;2023-04-24T04:51:49;0.97;;;0.80;;
7761;SDS011;3925;48.636;9.516;2023-04-24T04:54:18;2.70;;;0.80;;
7761;SDS011;3925;48.636;9.516;2023-04-24T04:56:44;1.40;;;1.30;;
7761;SDS011;3925;48.636;9.516;2023-04-24T04:59:11;1.57;;;0.77;;
7761;SDS011;3925;48.636;9.516;2023-04-24T05:01:38;0.67;;;0.67;;
7761;SDS011;3925;48.636;9.516;2023-04-24T05:04:05;0.80;;;0.80;;
7761;SDS011;3925;48.636;9.516;2023-04-24T05:06:33;1.00;;;1.00;;
7761;SDS011;3925;48.636;9.516;2023-04-24T05:09:00;1.90;;;1.00;;
7761;SDS011;3925;48.636;9.516;2023-04-24T05:11:28;4.70;;;1.33;;
7761;SDS011;3925;48.636;9.516;2023-04-24T05:13:55;1.30;;;0.77;;
7761;SDS011;3925;48.636;9.516;2023-04-24T05:16:22;1.10;;;1.03;;
7761;SDS011;3925;48.636;9.516;2023-04-24T05:18:49;1.80;;;1.30;;
7761;SDS011;3925;48.636;9.516;2023-04-24T05:21:15;1.00;;;1.00;;
7761;SDS011;3925;48.636;9.516;2023-04-24T05:23:44;1.87;;;1.33;;
7761;SDS011;3925;48.636;9.516;2023-04-24T05:26:10;1.03;;;1.03;;
7761;SDS011;3925;48.636;9.516;2023-04-24T05:28:37;1.77;;;1.23;;
7761;SDS011;3925;48.636;9.516;2023-04-24T05:31:04;1.77;;;1.10;;
7761;SDS011;3925;48.636;9.516;2023-04-24T05:33:31;4.83;;;1.13;;
7761;SDS011;3925;48.636;9.516;2023-04-24T05:35:58;9.00;;;2.23;;
7761;SDS011;3925;48.636;9.516;2023-04-24T05:38:25;2.00;;;1.20;;
7761;SDS011;3925;48.636;9.516;2023-04-24T05:40:53;1.33;;;1.20;;
7761;SDS011;3925;48.636;9.516;2023-04-24T05:43:20;2.07;;;1.30;;
7761;SDS011;3925;48.636;9.516;2023-04-24T05:45:47;3.20;;;1.57;;
7761;SDS011;3925;48.636;9.516;2023-04-24T05:48:13;4.30;;;1.60;;
7761;SDS011;3925;48.636;9.516;2023-04-24T05:50:40;1.83;;;1.70;;
7761;SDS011;3925;48.636;9.516;2023-04-24T05:53:07;1.83;;;1.30;;
7761;SDS011;3925;48.636;9.516;2023-04-24T05:55:35;1.47;;;1.33;;
7761;SDS011;3925;48.636;9.516;2023-04-24T05:58:04;3.33;;;1.20;;
7761;SDS011;3925;48.636;9.516;2023-04-24T06:00:31;1.40;;;1.30;;
7761;SDS011;3925;48.636;9.516;2023-04-24T06:02:59;1.90;;;1.30;;
7761;SDS011;3925;48.636;9.516;2023-04-24T06:05:28;1.67;;;1.20;;
7761;SDS011;3925;48.636;9.516;2023-04-24T06:07:55;1.47;;;1.33;;
7761;SDS011;3925;48.636;9.516;2023-04-24T06:10:22;2.27;;;1.30;;
7761;SDS011;3925;48.636;9.516;2023-04-24T06:12:49;1.43;;;1.33;;
7761;SDS011;3925;48.636;9.516;2023-04-24T06:15:18;1.40;;;1.30;;
7761;SDS011;3925;48.636;9.516;2023-04-24T06:17:44;1.20;;;1.20;;
7761;SDS011;3925;48.636;9.516;2023-04-24T06:20:11;1.57;;;1.40;;
7761;SDS011;3925;48.636;9.516;2023-04-24T06:22:38;1.77;;;1.50;;
7761;SDS011;3925;48.636;9.516;2023-04-24T06:25:05;1.20;;;1.10;;
7761;SDS011;3925;48.636;9.516;2023-04-24T06:27:33;3.50;;;1.20;;
7761;SDS011;3925;48.636;9.516;2023-04-24T06:30:00;2.30;;;1.20;;
7761;SDS011;3925;48.636;9.516;2023-04-24T06:32:28;1.27;;;1.17;;
7761;SDS011;3925;48.636;9.516;2023-04-24T06:34:55;1.33;;;1.23;;
7761;SDS011;3925;48.636;9.516;2023-04-24T06:37:22;2.47;;;1.20;;
7761;SDS011;3925;48.636;9.516;2023-04-24T06:39:49;2.07;;;1.10;;
7761;SDS011;3925;48.636;9.516;2023-04-24T06:42:16;3.70;;;1.23;;
7761;SDS011;3925;48.636;9.516;2023-04-24T06:44:45;1.40;;;1.23;;
7761;SDS011;3925;48.636;9.516;2023-04-24T06:47:12;1.23;;;1.13;;
7761;SDS011;3925;48.636;9.516;2023-04-24T06:49:41;1.10;;;1.00;;
7761;SDS011;3925;48.636;9.516;2023-04-24T06:52:08;2.00;;;1.33;;
7761;SDS011;3925;48.636;9.516;2023-04-24T06:54:35;0.87;;;0.87;;
7761;SDS011;3925;48.636;9.516;2023-04-24T06:57:01;1.20;;;0.77;;
7761;SDS011;3925;48.636;9.516;2023-04-24T06:59:28;1.07;;;1.07;;
7761;SDS011;3925;48.636;9.516;2023-04-24T07:01:56;0.90;;;0.80;;
7761;SDS011;3925;48.636;9.516;2023-04-24T07:04:23;1.10;;;1.00;;
7761;SDS011;3925;48.636;9.516;2023-04-24T07:06:52;1.20;;;0.87;;
7761;SDS011;3925;48.636;9.516;2023-04-24T07:09:21;1.00;;;0.90;;
7761;SDS011;3925;48.636;9.516;2023-04-24T07:11:48;1.20;;;0.80;;
7761;SDS011;3925;48.636;9.516;2023-04-24T07:14:16;1.53;;;1.00;;
7761;SDS011;3925;48.636;9.516;2023-04-24T07:16:43;0.97;;;0.87;;
7761;SDS011;3925;48.636;9.516;2023-04-24T07:19:10;1.50;;;0.73;;
7761;SDS011;3925;48.636;9.516;2023-04-24T07:21:37;0.93;;;0.70;;
7761;SDS011;3925;48.636;9.516;2023-04-24T07:24:05;1.73;;;0.70;;
7761;SDS011;3925;48.636;9.516;2023-04-24T07:26:35;1.03;;;0.73;;
7761;SDS011;3925;48.636;9.516;2023-04-24T07:29:03;0.80;;;0.80;;
7761;SDS011;3925;48.636;9.516;2023-04-24T07:31:30;0.80;;;0.80;;
7761;SDS011;3925;48.636;9.516;2023-04-24T07:33:57;0.73;;;0.67;;
7761;SDS011;3925;48.636;9.516;2023-04-24T07:36:24;1.73;;;1.63;;
7761;SDS011;3925;48.636;9.516;2023-04-24T07:38:51;1.93;;;0.90;;
7761;SDS011;3925;48.636;9.516;2023-04-24T07:41:19;2.40;;;1.00;;
7761;SDS011;3925;48.636;9.516;2023-04-24T07:43:46;1.17;;;1.00;;
7761;SDS011;3925;48.636;9.516;2023-04-24T07:46:13;2.17;;;1.50;;
7761;SDS011;3925;48.636;9.516;2023-04-24T07:48:40;2.30;;;1.50;;
7761;SDS011;3925;48.636;9.516;2023-04-24T07:51:07;1.47;;;1.30;;
7761;SDS011;3925;48.636;9.516;2023-04-24T07:53:35;1.50;;;1.40;;
7761;SDS011;3925;48.636;9.516;2023-04-24T07:56:02;2.07;;;1.60;;
7761;SDS011;3925;48.636;9.516;2023-04-24T07:58:30;1.50;;;1.40;;
7761;SDS011;3925;48.636;9.516;2023-04-24T08:00:57;1.33;;;1.23;;
7761;SDS011;3925;48.636;9.516;2023-04-24T08:03:24;2.47;;;1.40;;
7761;SDS011;3925;48.636;9.516;2023-04-24T08:05:50;2.57;;;1.10;;
7761;SDS011;3925;48.636;9.516;2023-04-24T08:08:18;3.43;;;1.20;;
7761;SDS011;3925;48.636;9.516;2023-04-24T08:10:47;1.13;;;1.03;;
7761;SDS011;3925;48.636;9.516;2023-04-24T08:13:14;1.07;;;0.97;;
7761;SDS011;3925;48.636;9.516;2023-04-24T08:15:42;2.13;;;1.20;;
7761;SDS011;3925;48.636;9.516;2023-04-24T08:18:09;1.33;;;1.23;;
7761;SDS011;3925;48.636;9.516;2023-04-24T08:20:37;1.27;;;1.07;;
7761;SDS011;3925;48.636;9.516;2023-04-24T08:23:04;1.07;;;1.00;;
7761;SDS011;3925;48.636;9.516;2023-04-24T08:25:31;1.70;;;1.33;;
7761;SDS011;3925;48.636;9.516;2023-04-24T08:28:00;1.60;;;1.50;;
7761;SDS011;3925;48.636;9.516;2023-04-24T08:30:28;1.13;;;1.13;;
7761;SDS011;3925;48.636;9.516;2023-04-24T08:32:56;3.20;;;1.57;;
7761;SDS011;3925;48.636;9.516;2023-04-24T08:35:23;5.13;;;1.30;;
7761;SDS011;3925;48.636;9.516;2023-04-24T08:37:51;1.27;;;1.17;;
7761;SDS011;3925;48.636;9.516;2023-04-24T08:40:19;1.50;;;1.13;;
7761;SDS011;3925;48.636;9.516;2023-04-24T08:42:51;1.10;;;0.97;;
7761;SDS011;3925;48.636;9.516;2023-04-24T08:45:21;1.67;;;1.40;;
7761;SDS011;3925;48.636;9.516;2023-04-24T08:47:48;1.10;;;0.90;;
7761;SDS011;3925;48.636;9.516;2023-04-24T08:50:17;1.40;;;1.30;;
7761;SDS011;3925;48.636;9.516;2023-04-24T08:52:44;1.30;;;1.20;;
7761;SDS011;3925;48.636;9.516;2023-04-24T08:55:11;2.93;;;1.40;;
7761;SDS011;3925;48.636;9.516;2023-04-24T08:57:39;2.90;;;1.40;;
7761;SDS011;3925;48.636;9.516;2023-04-24T09:00:09;3.77;;;1.20;;
7761;SDS011;3925;48.636;9.516;2023-04-24T09:02:37;1.60;;;1.00;;
7761;SDS011;3925;48.636;9.516;2023-04-24T09:05:08;1.57;;;1.07;;
7761;SDS011;3925;48.636;9.516;2023-04-24T09:07:37;1.27;;;1.17;;
7761;SDS011;3925;48.636;9.516;2023-04-24T09:10:07;3.53;;;1.40;;
7761;SDS011;3925;48.636;9.516;2023-04-24T09:12:34;3.43;;;1.20;;
7761;SDS011;3925;48.636;9.516;2023-04-24T09:15:02;1.47;;;1.10;;
7761;SDS011;3925;48.636;9.516;2023-04-24T09:17:30;1.90;;;1.17;;
7761;SDS011;3925;48.636;9.516;2023-04-24T09:19:57;1.47;;;1.10;;
7761;SDS011;3925;48.636;9.516;2023-04-24T09:22:23;1.63;;;1.07;;
7761;SDS011;3925;48.636;9.516;2023-04-24T09:25:00;2.07;;;1.20;;
7761;SDS011;3925;48.636;9.516;2023-04-24T09:27:29;1.27;;;1.00;;
7761;SDS011;3925;48.636;9.516;2023-04-24T09:29:56;2.73;;;1.20;;
7761;SDS011;3925;48.636;9.516;2023-04-24T09:32:24;1.13;;;1.03;;
7761;SDS011;3925;48.636;9.516;2023-04-24T09:35:04;1.47;;;1.23;;
7761;SDS011;3925;48.636;9.516;2023-04-24T09:37:35;1.30;;;1.20;;
7761;SDS011;3925;48.636;9.516;2023-04-24T09:40:14;1.27;;;1.17;;
7761;SDS011;3925;48.636;9.516;2023-04-24T09:42:45;2.83;;;1.50;;
7761;SDS011;3925;48.636;9.516;2023-04-24T09:45:17;2.43;;;1.03;;
7761;SDS011;3925;48.636;9.516;2023-04-24T09:47:44;4.93;;;1.30;;
7761;SDS011;3925;48.636;9.516;2023-04-24T09:50:12;1.70;;;1.50;;
7761;SDS011;3925;48.636;9.516;2023-04-24T09:52:40;1.30;;;1.20;;
7761;SDS011;3925;48.636;9.516;2023-04-24T09:55:13;1.60;;;1.20;;
7761;SDS011;3925;48.636;9.516;2023-04-24T09:57:47;1.37;;;1.27;;
7761;SDS011;3925;48.636;9.516;2023-04-24T10:00:17;2.33;;;1.30;;
7761;SDS011;3925;48.636;9.516;2023-04-24T10:02:49;2.23;;;1.40;;
7761;SDS011;3925;48.636;9.516;2023-04-24T10:05:17;1.20;;;1.10;;
7761;SDS011;3925;48.636;9.516;2023-04-24T10:07:43;0.93;;;0.90;;
7761;SDS011;3925;48.636;9.516;2023-04-24T10:10:11;1.17;;;1.10;;
7761;SDS011;3925;48.636;9.516;2023-04-24T10:12:39;0.93;;;0.93;;
7761;SDS011;3925;48.636;9.516;2023-04-24T10:15:07;0.80;;;0.80;;
7761;SDS011;3925;48.636;9.516;2023-04-24T10:17:37;1.43;;;1.33;;
